Time;durP1;ratioP1;P1;durP2;ratioP2;P2;SDS_P1;SDS_P2;PMS_P1;PMS_P2;Temp;Humidity;BMP_temperature;BMP_pressure;BME280_temperature;BME280_humidity;BME280_pressure;Samples;Min_cycle;Max_cycle;Signal;HPM_P1;HPM_P2
2023/12/12 00:02:12;;;;;;;5.63;2.33;;;;;;;;;;5092505;28;20040;-78
2023/12/12 00:04:38;;;;;;;5.80;1.90;;;;;;;;;;5091349;28;20392;-78
2023/12/12 00:07:04;;;;;;;5.15;2.22;;;;;;;;;;5090922;28;20042;-78
2023/12/12 00:09:30;;;;;;;3.65;1.80;;;;;;;;;;5091586;28;20153;-78
2023/12/12 00:11:56;;;;;;;10.13;1.83;;;;;;;;;;5090973;28;20101;-78
2023/12/12 00:14:22;;;;;;;5.40;1.70;;;;;;;;;;5090856;28;20044;-78
2023/12/12 00:16:48;;;;;;;5.38;1.80;;;;;;;;;;5091639;28;20438;-78
2023/12/12 00:19:15;;;;;;;8.93;1.98;;;;;;;;;;5074339;28;20038;-78
2023/12/12 00:21:41;;;;;;;10.95;2.33;;;;;;;;;;5091009;28;20027;-78
2023/12/12 00:24:07;;;;;;;5.78;1.77;;;;;;;;;;5090998;28;20074;-78
2023/12/12 00:26:33;;;;;;;8.30;2.67;;;;;;;;;;5091047;28;20044;-78
2023/12/12 00:28:59;;;;;;;7.07;1.77;;;;;;;;;;5090831;28;20046;-79
2023/12/12 00:31:25;;;;;;;5.63;1.60;;;;;;;;;;5090920;28;20547;-79
2023/12/12 00:33:51;;;;;;;9.48;2.08;;;;;;;;;;5090658;28;20043;-78
2023/12/12 00:36:17;;;;;;;7.65;1.67;;;;;;;;;;5073903;28;20036;-78
2023/12/12 00:38:43;;;;;;;4.75;1.25;;;;;;;;;;5073760;28;20032;-78
2023/12/12 00:41:09;;;;;;;7.45;2.15;;;;;;;;;;5090742;28;20071;-78
2023/12/12 00:43:35;;;;;;;4.40;1.95;;;;;;;;;;5090678;28;20093;-78
2023/12/12 00:46:01;;;;;;;4.93;1.52;;;;;;;;;;5090628;28;20036;-78
2023/12/12 00:48:27;;;;;;;5.28;1.50;;;;;;;;;;5090567;28;20512;-78
2023/12/12 00:50:53;;;;;;;3.25;1.20;;;;;;;;;;5090137;28;20051;-78
2023/12/12 00:53:20;;;;;;;2.70;1.60;;;;;;;;;;5090733;28;20071;-78
2023/12/12 00:55:46;;;;;;;4.32;1.38;;;;;;;;;;5090468;28;20051;-79
2023/12/12 00:58:12;;;;;;;9.02;2.25;;;;;;;;;;5090918;28;20039;-78
2023/12/12 01:00:38;;;;;;;4.38;1.95;;;;;;;;;;5087464;28;20072;-78
2023/12/12 01:03:04;;;;;;;5.28;2.15;;;;;;;;;;5073296;28;20476;-78
2023/12/12 01:05:30;;;;;;;6.30;1.48;;;;;;;;;;5090267;28;20044;-78
2023/12/12 01:07:56;;;;;;;6.10;1.45;;;;;;;;;;5073646;28;20503;-79
2023/12/12 01:10:22;;;;;;;5.13;1.85;;;;;;;;;;5090327;28;20509;-78
2023/12/12 01:12:48;;;;;;;7.30;1.98;;;;;;;;;;5090488;28;20094;-78
2023/12/12 01:15:14;;;;;;;6.25;1.65;;;;;;;;;;5090302;28;20050;-78
2023/12/12 01:17:40;;;;;;;6.72;2.45;;;;;;;;;;5107610;28;20078;-78
2023/12/12 01:20:08;;;;;;;6.32;2.10;;;;;;;;;;5090484;28;20531;-78
2023/12/12 01:22:34;;;;;;;7.90;2.88;;;;;;;;;;5090547;28;20048;-78
2023/12/12 01:25:00;;;;;;;7.43;2.22;;;;;;;;;;5090503;28;20044;-79
2023/12/12 01:27:27;;;;;;;5.50;2.10;;;;;;;;;;5090137;28;20048;-78
2023/12/12 01:29:54;;;;;;;7.53;1.50;;;;;;;;;;5090290;28;20048;-78
2023/12/12 01:32:20;;;;;;;4.60;1.70;;;;;;;;;;5090446;28;20048;-78
2023/12/12 01:34:46;;;;;;;2.83;1.38;;;;;;;;;;5073583;28;20089;-78
2023/12/12 01:37:12;;;;;;;6.80;1.33;;;;;;;;;;5090182;28;20051;-78
2023/12/12 01:39:38;;;;;;;6.40;1.35;;;;;;;;;;5107846;28;20047;-78
2023/12/12 01:42:04;;;;;;;7.95;1.50;;;;;;;;;;5091794;28;20036;-79
2023/12/12 01:44:31;;;;;;;4.00;1.30;;;;;;;;;;5090340;28;20166;-79
2023/12/12 01:46:57;;;;;;;3.90;1.50;;;;;;;;;;5090356;28;20043;-78
2023/12/12 01:49:23;;;;;;;2.75;1.27;;;;;;;;;;5092566;28;20086;-78
2023/12/12 01:51:49;;;;;;;3.95;1.08;;;;;;;;;;5101178;28;20044;-78
2023/12/12 01:54:17;;;;;;;3.75;1.83;;;;;;;;;;5101341;28;20497;-78
2023/12/12 01:56:46;;;;;;;4.93;1.23;;;;;;;;;;5098484;28;20044;-79
2023/12/12 01:59:12;;;;;;;2.30;1.30;;;;;;;;;;5094660;28;20029;-79
2023/12/12 02:01:38;;;;;;;4.90;1.38;;;;;;;;;;5095020;28;20110;-79
2023/12/12 02:04:05;;;;;;;1.88;1.38;;;;;;;;;;5093678;28;20032;-79
2023/12/12 02:06:31;;;;;;;2.60;1.20;;;;;;;;;;5093331;28;20047;-78
2023/12/12 02:08:57;;;;;;;3.95;1.40;;;;;;;;;;5076667;28;20085;-78
2023/12/12 02:11:23;;;;;;;3.60;1.55;;;;;;;;;;5093339;28;20047;-78
2023/12/12 02:13:50;;;;;;;1.38;1.20;;;;;;;;;;5093127;28;20056;-75
2023/12/12 02:16:17;;;;;;;4.60;1.50;;;;;;;;;;5076880;28;20426;-79
2023/12/12 02:18:43;;;;;;;3.00;1.40;;;;;;;;;;5091114;28;20036;-79
2023/12/12 02:21:09;;;;;;;6.13;2.13;;;;;;;;;;5092208;28;20165;-78
2023/12/12 02:23:35;;;;;;;4.55;1.33;;;;;;;;;;5092362;28;20046;-78
2023/12/12 02:26:02;;;;;;;2.03;1.30;;;;;;;;;;5093229;28;20430;-78
2023/12/12 02:28:28;;;;;;;6.72;1.50;;;;;;;;;;5093033;28;20036;-78
2023/12/12 02:30:55;;;;;;;4.55;1.42;;;;;;;;;;5075849;28;20040;-78
2023/12/12 02:33:21;;;;;;;3.17;1.25;;;;;;;;;;5091757;28;20373;-79
2023/12/12 02:35:47;;;;;;;2.78;1.15;;;;;;;;;;5092810;28;20028;-78
2023/12/12 02:38:16;;;;;;;3.38;1.45;;;;;;;;;;5092645;28;20036;-78
2023/12/12 02:40:42;;;;;;;2.92;1.45;;;;;;;;;;5092938;28;20559;-78
2023/12/12 02:43:08;;;;;;;3.13;1.30;;;;;;;;;;5092702;28;20124;-78
2023/12/12 02:45:34;;;;;;;6.03;1.60;;;;;;;;;;5075267;28;20047;-79
2023/12/12 02:48:00;;;;;;;10.40;1.70;;;;;;;;;;5092473;28;20444;-78
2023/12/12 02:50:26;;;;;;;2.88;1.38;;;;;;;;;;5092369;28;20086;-79
2023/12/12 02:52:53;;;;;;;5.35;1.50;;;;;;;;;;5092267;28;20131;-79
2023/12/12 02:55:19;;;;;;;4.18;1.73;;;;;;;;;;5091893;28;20188;-78
2023/12/12 02:57:45;;;;;;;6.95;1.90;;;;;;;;;;5092421;28;20039;-78
2023/12/12 03:00:11;;;;;;;4.38;1.50;;;;;;;;;;5075462;28;20414;-79
2023/12/12 03:02:37;;;;;;;5.43;1.80;;;;;;;;;;5091533;28;20039;-78
2023/12/12 03:05:04;;;;;;;2.67;1.30;;;;;;;;;;5092487;28;20051;-78
2023/12/12 03:07:30;;;;;;;4.10;1.67;;;;;;;;;;5093774;28;20495;-78
2023/12/12 03:09:56;;;;;;;3.30;1.45;;;;;;;;;;5092269;28;20040;-78
2023/12/12 03:12:23;;;;;;;2.17;1.38;;;;;;;;;;5093374;28;20103;-78
2023/12/12 03:14:49;;;;;;;5.57;1.63;;;;;;;;;;5092417;28;20040;-78
2023/12/12 03:17:15;;;;;;;5.78;1.60;;;;;;;;;;5091986;28;20040;-78
2023/12/12 03:19:42;;;;;;;6.40;1.70;;;;;;;;;;5091892;28;20040;-78
2023/12/12 03:22:09;;;;;;;3.53;1.50;;;;;;;;;;5075009;28;20040;-78
2023/12/12 03:24:35;;;;;;;7.45;1.67;;;;;;;;;;5091953;28;20050;-78
2023/12/12 03:27:01;;;;;;;3.33;1.60;;;;;;;;;;5092092;28;20040;-78
2023/12/12 03:29:27;;;;;;;6.47;2.33;;;;;;;;;;5092073;28;20043;-78
2023/12/12 03:31:53;;;;;;;4.03;1.92;;;;;;;;;;5091877;28;20043;-78
2023/12/12 03:34:19;;;;;;;3.63;1.58;;;;;;;;;;5091618;28;20046;-78
2023/12/12 03:36:45;;;;;;;4.38;1.73;;;;;;;;;;5091131;28;20285;-79
2023/12/12 03:39:12;;;;;;;3.53;1.70;;;;;;;;;;5091910;28;20106;-78
2023/12/12 03:41:38;;;;;;;4.32;1.60;;;;;;;;;;5091923;28;20396;-72
2023/12/12 03:44:04;;;;;;;2.75;1.70;;;;;;;;;;5091250;28;20122;-72
2023/12/12 03:46:30;;;;;;;5.63;1.90;;;;;;;;;;5091257;28;20036;-72
2023/12/12 03:48:56;;;;;;;3.15;1.40;;;;;;;;;;5091075;28;20086;-78
2023/12/12 03:51:23;;;;;;;9.27;2.50;;;;;;;;;;5074428;28;20059;-78
2023/12/12 03:53:50;;;;;;;6.22;2.00;;;;;;;;;;5091589;28;20086;-79
2023/12/12 03:56:16;;;;;;;5.35;1.88;;;;;;;;;;5091445;28;20054;-78
2023/12/12 03:58:42;;;;;;;3.95;1.70;;;;;;;;;;5091499;28;20121;-78
2023/12/12 04:01:08;;;;;;;6.68;1.60;;;;;;;;;;5091431;28;20036;-78
2023/12/12 04:03:34;;;;;;;2.92;1.70;;;;;;;;;;5074611;28;20433;-78
2023/12/12 04:06:04;;;;;;;2.97;1.60;;;;;;;;;;5091453;28;20082;-78
2023/12/12 04:08:30;;;;;;;4.75;1.77;;;;;;;;;;5091417;28;20079;-78
2023/12/12 04:10:56;;;;;;;4.80;1.75;;;;;;;;;;5091130;28;20496;-78
2023/12/12 04:13:22;;;;;;;4.20;1.70;;;;;;;;;;5090851;28;20036;-78
2023/12/12 04:15:48;;;;;;;3.85;1.80;;;;;;;;;;5090738;28;20042;-78
2023/12/12 04:18:15;;;;;;;5.05;1.92;;;;;;;;;;5091267;28;20385;-78
2023/12/12 04:20:42;;;;;;;2.78;1.83;;;;;;;;;;5090876;28;20102;-78
2023/12/12 04:23:08;;;;;;;3.78;2.30;;;;;;;;;;5090582;28;20050;-78
2023/12/12 04:25:34;;;;;;;3.83;2.10;;;;;;;;;;5090698;28;20097;-78
2023/12/12 04:28:00;;;;;;;5.25;2.10;;;;;;;;;;5091139;28;20040;-78
2023/12/12 04:30:26;;;;;;;2.85;2.10;;;;;;;;;;5091161;28;20380;-78
2023/12/12 04:32:52;;;;;;;7.15;2.10;;;;;;;;;;5087573;28;20051;-79
2023/12/12 04:35:19;;;;;;;5.85;3.88;;;;;;;;;;5091001;28;20100;-78
2023/12/12 04:37:46;;;;;;;4.47;2.22;;;;;;;;;;5090747;28;20067;-78
2023/12/12 04:40:12;;;;;;;8.15;2.53;;;;;;;;;;5073750;28;20040;-78
2023/12/12 04:42:38;;;;;;;5.13;2.30;;;;;;;;;;5090905;28;20039;-78
2023/12/12 04:45:05;;;;;;;7.80;2.65;;;;;;;;;;5090921;28;20052;-78
2023/12/12 04:47:31;;;;;;;8.02;2.90;;;;;;;;;;5074625;28;20073;-78
2023/12/12 04:49:57;;;;;;;4.30;2.35;;;;;;;;;;5076540;28;20384;-79
2023/12/12 04:52:23;;;;;;;6.10;3.60;;;;;;;;;;5092907;28;20044;-79
2023/12/12 04:54:49;;;;;;;13.35;2.97;;;;;;;;;;5094300;28;20047;-79
2023/12/12 04:57:15;;;;;;;3.78;2.47;;;;;;;;;;5094341;28;20199;-78
2023/12/12 04:59:42;;;;;;;6.15;2.72;;;;;;;;;;5093931;28;20165;-78
2023/12/12 05:02:08;;;;;;;7.05;2.58;;;;;;;;;;5090510;28;20040;-78
2023/12/12 05:04:35;;;;;;;8.02;2.97;;;;;;;;;;5074007;28;20036;-79
2023/12/12 05:07:01;;;;;;;6.47;2.90;;;;;;;;;;5090691;28;20111;-78
2023/12/12 05:09:27;;;;;;;5.70;3.20;;;;;;;;;;5088600;28;20044;-79
2023/12/12 05:11:53;;;;;;;10.02;3.75;;;;;;;;;;5090771;28;20121;-78
2023/12/12 05:14:20;;;;;;;5.47;3.00;;;;;;;;;;5090458;28;20139;-78
2023/12/12 05:16:46;;;;;;;6.72;3.45;;;;;;;;;;5091890;28;20396;-78
2023/12/12 05:19:12;;;;;;;8.30;3.70;;;;;;;;;;5090961;28;20062;-78
2023/12/12 05:21:38;;;;;;;8.20;3.70;;;;;;;;;;5090507;28;20139;-79
2023/12/12 05:24:05;;;;;;;7.00;3.13;;;;;;;;;;5090246;28;20051;-78
2023/12/12 05:26:32;;;;;;;8.35;3.58;;;;;;;;;;5076632;28;20048;-78
2023/12/12 05:28:58;;;;;;;6.43;3.30;;;;;;;;;;5111321;28;20108;-78
2023/12/12 05:31:24;;;;;;;5.80;3.40;;;;;;;;;;5095433;28;20043;-78
2023/12/12 05:33:50;;;;;;;7.88;3.33;;;;;;;;;;5094212;28;20077;-78
2023/12/12 05:36:16;;;;;;;5.63;3.63;;;;;;;;;;5094341;28;20066;-78
2023/12/12 05:38:42;;;;;;;7.57;3.60;;;;;;;;;;5077038;28;20032;-78
2023/12/12 05:41:08;;;;;;;9.23;3.83;;;;;;;;;;5094267;28;20115;-78
2023/12/12 05:43:34;;;;;;;5.47;3.65;;;;;;;;;;5077631;28;20098;-79
2023/12/12 05:46:00;;;;;;;8.15;3.88;;;;;;;;;;5093972;28;20495;-78
2023/12/12 05:48:26;;;;;;;9.05;4.32;;;;;;;;;;5093748;28;20572;-78
2023/12/12 05:50:53;;;;;;;7.13;3.83;;;;;;;;;;5093657;28;20039;-78
2023/12/12 05:53:19;;;;;;;7.20;4.90;;;;;;;;;;5077025;28;20040;-78
2023/12/12 05:55:45;;;;;;;6.72;3.72;;;;;;;;;;5076966;28;20506;-79
2023/12/12 05:58:11;;;;;;;8.02;4.00;;;;;;;;;;5093647;28;20399;-78
2023/12/12 06:00:39;;;;;;;6.85;3.60;;;;;;;;;;5093748;28;20040;-78
2023/12/12 06:03:06;;;;;;;8.35;3.88;;;;;;;;;;5093474;28;20052;-78
2023/12/12 06:05:32;;;;;;;7.47;4.38;;;;;;;;;;5093481;28;20048;-78
2023/12/12 06:07:58;;;;;;;6.55;4.00;;;;;;;;;;5094791;28;20460;-79
2023/12/12 06:10:24;;;;;;;6.40;3.63;;;;;;;;;;5093088;28;20036;-78
2023/12/12 06:12:50;;;;;;;11.45;4.18;;;;;;;;;;5093614;28;20052;-78
2023/12/12 06:15:16;;;;;;;11.40;4.18;;;;;;;;;;5093538;28;20040;-78
2023/12/12 06:17:42;;;;;;;9.35;4.53;;;;;;;;;;5093665;28;20059;-78
2023/12/12 06:20:08;;;;;;;9.38;4.00;;;;;;;;;;5076588;28;20037;-78
2023/12/12 06:22:35;;;;;;;6.63;3.97;;;;;;;;;;5094120;28;20044;-79
2023/12/12 06:25:01;;;;;;;9.00;5.13;;;;;;;;;;5076775;28;20044;-78
2023/12/12 06:27:27;;;;;;;9.70;5.40;;;;;;;;;;5074159;28;20115;-78
2023/12/12 06:29:54;;;;;;;9.57;4.07;;;;;;;;;;5093041;28;20043;-78
2023/12/12 06:32:20;;;;;;;9.13;4.45;;;;;;;;;;5093137;28;20047;-78
2023/12/12 06:34:46;;;;;;;7.80;4.28;;;;;;;;;;5093108;28;20526;-78
2023/12/12 06:37:12;;;;;;;6.50;3.80;;;;;;;;;;5092965;28;20036;-78
2023/12/12 06:39:38;;;;;;;8.05;4.35;;;;;;;;;;5076425;28;20081;-78
2023/12/12 06:42:05;;;;;;;8.13;3.90;;;;;;;;;;5092942;28;20063;-78
2023/12/12 06:44:31;;;;;;;8.50;4.00;;;;;;;;;;5092959;28;20143;-78
2023/12/12 06:46:58;;;;;;;9.70;3.90;;;;;;;;;;5093104;28;20467;-78
2023/12/12 06:49:24;;;;;;;7.07;4.20;;;;;;;;;;5092987;28;20051;-78
2023/12/12 06:51:50;;;;;;;6.55;3.55;;;;;;;;;;5075534;28;20056;-72
2023/12/12 06:54:16;;;;;;;9.60;4.38;;;;;;;;;;5092451;28;20048;-72
2023/12/12 06:56:42;;;;;;;8.43;4.07;;;;;;;;;;5092339;28;20503;-72
2023/12/12 06:59:09;;;;;;;8.45;4.55;;;;;;;;;;5075528;28;20119;-72
2023/12/12 07:01:35;;;;;;;8.15;4.40;;;;;;;;;;5105799;28;20040;-72
2023/12/12 07:04:01;;;;;;;9.45;4.75;;;;;;;;;;5093277;28;20127;-72
2023/12/12 07:06:27;;;;;;;6.18;4.60;;;;;;;;;;5092262;28;20050;-72
2023/12/12 07:08:53;;;;;;;11.02;4.70;;;;;;;;;;5092043;28;20488;-73
2023/12/12 07:11:19;;;;;;;6.30;4.65;;;;;;;;;;5091900;28;20040;-72
2023/12/12 07:13:45;;;;;;;8.70;4.72;;;;;;;;;;5092004;28;20468;-73
2023/12/12 07:16:11;;;;;;;8.32;4.50;;;;;;;;;;5075486;28;20040;-79
2023/12/12 07:18:38;;;;;;;10.98;4.97;;;;;;;;;;5092360;28;20039;-78
2023/12/12 07:21:04;;;;;;;9.07;4.55;;;;;;;;;;5097640;28;20032;-78
2023/12/12 07:23:31;;;;;;;8.63;4.97;;;;;;;;;;5104477;28;20043;-79
2023/12/12 07:25:57;;;;;;;8.45;5.05;;;;;;;;;;5107436;28;20070;-78
2023/12/12 07:28:23;;;;;;;6.90;4.82;;;;;;;;;;5102746;28;20127;-78
2023/12/12 07:30:50;;;;;;;11.15;5.70;;;;;;;;;;5091848;28;20048;-78
2023/12/12 07:33:16;;;;;;;12.68;6.60;;;;;;;;;;5091837;28;20047;-78
2023/12/12 07:35:42;;;;;;;12.40;6.55;;;;;;;;;;5092017;28;20044;-78
2023/12/12 07:38:08;;;;;;;21.52;7.55;;;;;;;;;;5092018;28;20472;-72
2023/12/12 07:40:34;;;;;;;14.10;7.45;;;;;;;;;;5091115;28;20043;-72
2023/12/12 07:43:00;;;;;;;15.98;6.72;;;;;;;;;;5091450;28;20083;-72
2023/12/12 07:45:26;;;;;;;20.92;8.20;;;;;;;;;;5091647;28;20040;-72
2023/12/12 07:47:52;;;;;;;17.38;7.88;;;;;;;;;;5090812;28;20040;-72
2023/12/12 07:50:18;;;;;;;18.42;7.85;;;;;;;;;;5090364;28;20039;-72
2023/12/12 07:52:47;;;;;;;15.20;8.10;;;;;;;;;;5090738;28;20051;-72
2023/12/12 07:55:13;;;;;;;17.80;8.13;;;;;;;;;;5091155;28;20051;-73
2023/12/12 07:57:39;;;;;;;18.35;7.93;;;;;;;;;;5091040;28;20501;-78
2023/12/12 08:00:06;;;;;;;19.10;7.70;;;;;;;;;;5090918;28;20043;-78
2023/12/12 08:02:32;;;;;;;19.65;8.15;;;;;;;;;;5090132;28;20036;-78
2023/12/12 08:04:59;;;;;;;22.80;8.20;;;;;;;;;;5092304;28;20442;-78
2023/12/12 08:07:25;;;;;;;21.27;9.43;;;;;;;;;;5074794;28;20044;-78
2023/12/12 08:09:51;;;;;;;31.50;9.30;;;;;;;;;;5091410;28;20473;-78
2023/12/12 08:12:18;;;;;;;37.38;10.52;;;;;;;;;;5091872;28;20134;-78
2023/12/12 08:14:44;;;;;;;26.13;9.95;;;;;;;;;;5092207;28;20040;-78
2023/12/12 08:17:10;;;;;;;19.42;9.40;;;;;;;;;;5091441;28;20047;-78
2023/12/12 08:19:36;;;;;;;22.45;9.63;;;;;;;;;;5091857;28;20078;-79
2023/12/12 08:22:02;;;;;;;30.58;10.00;;;;;;;;;;5091426;28;20548;-79
2023/12/12 08:24:29;;;;;;;20.08;8.80;;;;;;;;;;5091225;28;20547;-78
2023/12/12 08:26:55;;;;;;;19.02;8.95;;;;;;;;;;5092257;28;20051;-79
2023/12/12 08:29:21;;;;;;;35.42;10.02;;;;;;;;;;5074080;28;20089;-79
2023/12/12 08:31:47;;;;;;;36.45;9.38;;;;;;;;;;5074718;28;20051;-79
2023/12/12 08:34:13;;;;;;;43.58;9.57;;;;;;;;;;5091704;28;20430;-79
2023/12/12 08:36:40;;;;;;;61.30;10.52;;;;;;;;;;5091823;28;20062;-79
2023/12/12 08:39:07;;;;;;;21.38;9.00;;;;;;;;;;5091973;28;20511;-80
2023/12/12 08:41:33;;;;;;;28.00;8.40;;;;;;;;;;5092870;28;20050;-79
2023/12/12 08:44:00;;;;;;;62.38;9.95;;;;;;;;;;5071618;28;20479;-79
2023/12/12 08:46:26;;;;;;;74.10;9.05;;;;;;;;;;5088269;28;20119;-79
2023/12/12 08:49:03;;;;;;;39.20;8.38;;;;;;;;;;5092060;28;20119;-79
2023/12/12 08:51:33;;;;;;;56.65;8.93;;;;;;;;;;5092429;28;20046;-78
2023/12/12 08:54:05;;;;;;;48.80;8.07;;;;;;;;;;5076399;28;20048;-79
2023/12/12 08:56:32;;;;;;;66.10;8.38;;;;;;;;;;5091950;28;20381;-79
2023/12/12 08:58:58;;;;;;;49.90;8.75;;;;;;;;;;5058916;28;20036;-79
2023/12/12 09:01:24;;;;;;;43.85;8.20;;;;;;;;;;5078113;28;20093;-79
2023/12/12 09:03:54;;;;;;;31.58;8.88;;;;;;;;;;5057776;28;20052;-80
2023/12/12 09:06:20;;;;;;;38.65;9.35;;;;;;;;;;5058335;28;20065;-81
2023/12/12 09:08:49;;;;;;;16.25;8.43;;;;;;;;;;5058096;28;20063;-80
2023/12/12 09:11:16;;;;;;;16.33;8.98;;;;;;;;;;5058283;28;20040;-81
2023/12/12 09:13:43;;;;;;;22.33;9.18;;;;;;;;;;5041668;28;20048;-80
2023/12/12 09:16:12;;;;;;;19.30;10.00;;;;;;;;;;5070194;28;20403;-79
2023/12/12 09:18:38;;;;;;;35.83;9.65;;;;;;;;;;5094948;28;20051;-80
2023/12/12 09:21:06;;;;;;;29.42;9.98;;;;;;;;;;5061487;28;20040;-80
2023/12/12 09:23:32;;;;;;;22.63;9.93;;;;;;;;;;5095191;28;20455;-80
2023/12/12 09:25:59;;;;;;;25.60;9.98;;;;;;;;;;5069860;28;20035;-79
2023/12/12 09:28:34;;;;;;;26.90;9.57;;;;;;;;;;5061465;28;20079;-80
2023/12/12 09:31:01;;;;;;;25.77;9.60;;;;;;;;;;5066149;28;20044;-80
2023/12/12 09:33:27;;;;;;;26.15;9.02;;;;;;;;;;5057461;28;20080;-79
2023/12/12 09:35:53;;;;;;;15.73;10.40;;;;;;;;;;5090537;28;20048;-80
2023/12/12 09:38:20;;;;;;;26.45;10.18;;;;;;;;;;5078868;28;20454;-79
2023/12/12 09:40:52;;;;;;;28.10;10.45;;;;;;;;;;5095646;28;20115;-80
2023/12/12 09:43:34;;;;;;;16.92;10.93;;;;;;;;;;5094139;28;20126;-79
2023/12/12 09:46:08;;;;;;;31.30;11.50;;;;;;;;;;5077669;28;20048;-78
2023/12/12 09:48:50;;;;;;;18.10;11.23;;;;;;;;;;5092698;28;20485;-79
2023/12/12 09:51:31;;;;;;;;;;;;;;;;;;5094671;28;20059;-80
2023/12/12 09:54:10;;;;;;;25.55;9.85;;;;;;;;;;5077842;28;19927;-79
2023/12/12 09:56:45;;;;;;;29.83;9.82;;;;;;;;;;5078118;28;20123;-80
2023/12/12 09:59:11;;;;;;;46.53;12.40;;;;;;;;;;5095047;28;20477;-79
2023/12/12 10:01:38;;;;;;;41.85;12.45;;;;;;;;;;5095194;28;20032;-78
2023/12/12 10:04:06;;;;;;;43.13;12.45;;;;;;;;;;5079266;28;20040;-79
2023/12/12 10:06:54;;;;;;;23.80;12.63;;;;;;;;;;5094950;28;20040;-78
2023/12/12 10:09:24;;;;;;;18.85;12.55;;;;;;;;;;5077690;28;20054;-79
2023/12/12 10:11:50;;;;;;;18.95;12.88;;;;;;;;;;5094000;28;20097;-79
2023/12/12 10:14:35;;;;;;;22.05;12.98;;;;;;;;;;5094371;28;20044;-79
2023/12/12 10:17:05;;;;;;;41.97;13.60;;;;;;;;;;5101876;28;20364;-78
2023/12/12 10:19:32;;;;;;;25.00;12.18;;;;;;;;;;5093638;28;20545;-77
2023/12/12 10:22:01;;;;;;;25.88;12.95;;;;;;;;;;5094097;28;20102;-77
2023/12/12 10:24:27;;;;;;;22.90;12.57;;;;;;;;;;5094256;28;20040;-78
2023/12/12 10:26:57;;;;;;;27.17;14.43;;;;;;;;;;5093145;28;20043;-77
2023/12/12 10:29:23;;;;;;;22.90;13.50;;;;;;;;;;5091922;28;20109;-78
2023/12/12 10:31:50;;;;;;;31.95;13.85;;;;;;;;;;5090882;28;20545;-79
2023/12/12 10:34:20;;;;;;;27.02;13.55;;;;;;;;;;5092933;28;20132;-77
2023/12/12 10:36:49;;;;;;;25.05;13.93;;;;;;;;;;5092742;28;20039;-77
2023/12/12 10:39:16;;;;;;;20.17;13.40;;;;;;;;;;5110258;28;20043;-77
2023/12/12 10:41:51;;;;;;;21.77;13.68;;;;;;;;;;5096641;28;20500;-78
2023/12/12 10:44:19;;;;;;;20.10;13.73;;;;;;;;;;5093463;28;20039;-77
2023/12/12 10:46:47;;;;;;;21.60;13.82;;;;;;;;;;5075365;28;20384;-78
2023/12/12 10:49:14;;;;;;;20.65;13.50;;;;;;;;;;5076093;28;20051;-77
2023/12/12 10:51:40;;;;;;;23.95;14.27;;;;;;;;;;5106187;28;20048;-77
2023/12/12 10:54:07;;;;;;;21.90;13.82;;;;;;;;;;5091968;28;20052;-77
2023/12/12 10:56:35;;;;;;;21.38;13.88;;;;;;;;;;5089357;28;20039;-77
2023/12/12 10:59:03;;;;;;;22.42;14.55;;;;;;;;;;5092012;28;20459;-77
2023/12/12 11:01:29;;;;;;;22.38;13.90;;;;;;;;;;5092125;28;20491;-77
2023/12/12 11:03:58;;;;;;;22.58;14.18;;;;;;;;;;5075677;28;20085;-77
2023/12/12 11:06:25;;;;;;;20.67;13.43;;;;;;;;;;5094839;28;20075;-77
2023/12/12 11:08:52;;;;;;;21.35;13.13;;;;;;;;;;5091765;28;20062;-77
2023/12/12 11:11:19;;;;;;;23.02;13.02;;;;;;;;;;5090828;28;20507;-77
2023/12/12 11:13:46;;;;;;;18.05;12.65;;;;;;;;;;5091710;28;20453;-77
2023/12/12 11:16:13;;;;;;;18.02;12.00;;;;;;;;;;5091644;28;20040;-78
2023/12/12 11:18:42;;;;;;;16.83;11.35;;;;;;;;;;5091944;28;20068;-77
2023/12/12 11:21:08;;;;;;;18.02;12.20;;;;;;;;;;5094930;28;20031;-77
2023/12/12 11:23:52;;;;;;;20.08;12.13;;;;;;;;;;5090846;28;20048;-77
2023/12/12 11:26:19;;;;;;;21.52;12.02;;;;;;;;;;5094810;28;20484;-78
2023/12/12 11:28:51;;;;;;;16.40;11.30;;;;;;;;;;5075636;28;20046;-77
2023/12/12 11:31:21;;;;;;;16.92;12.07;;;;;;;;;;5093392;28;20048;-77
2023/12/12 11:34:05;;;;;;;19.55;12.27;;;;;;;;;;5092120;28;20040;-77
2023/12/12 11:36:51;;;;;;;18.90;12.55;;;;;;;;;;5090939;28;20435;-78
2023/12/12 11:39:23;;;;;;;18.17;12.68;;;;;;;;;;5092328;28;20036;-77
2023/12/12 11:41:53;;;;;;;20.15;13.98;;;;;;;;;;5075785;28;20476;-78
2023/12/12 11:44:22;;;;;;;18.88;12.90;;;;;;;;;;5092025;28;20518;-77
2023/12/12 11:46:50;;;;;;;22.15;12.82;;;;;;;;;;5092173;28;20058;-78
2023/12/12 11:49:19;;;;;;;20.17;12.45;;;;;;;;;;5084661;28;20093;-77
2023/12/12 11:51:47;;;;;;;22.20;13.65;;;;;;;;;;5091916;28;20122;-74
2023/12/12 11:54:23;;;;;;;20.63;13.40;;;;;;;;;;5091403;28;20500;-77
2023/12/12 11:56:59;;;;;;;22.65;13.07;;;;;;;;;;5075992;28;20045;-77
2023/12/12 11:59:27;;;;;;;19.35;12.43;;;;;;;;;;5091710;28;20442;-77
2023/12/12 12:01:53;;;;;;;19.60;12.88;;;;;;;;;;5091664;28;20036;-77
2023/12/12 12:04:21;;;;;;;22.60;12.63;;;;;;;;;;5091807;28;20484;-77
2023/12/12 12:06:48;;;;;;;20.30;12.40;;;;;;;;;;5092008;28;20044;-77
2023/12/12 12:09:16;;;;;;;22.23;13.27;;;;;;;;;;5090658;28;20040;-77
2023/12/12 12:11:47;;;;;;;19.48;13.15;;;;;;;;;;5091577;28;20048;-77
2023/12/12 12:14:15;;;;;;;22.63;12.90;;;;;;;;;;5091497;28;20122;-77
2023/12/12 12:16:41;;;;;;;18.60;12.60;;;;;;;;;;5091720;28;20062;-77
2023/12/12 12:19:33;;;;;;;21.60;13.18;;;6.80;99.90;;;;;;5091355;28;20039;-77
2023/12/12 12:22:09;;;;;;;19.98;13.02;;;;;;;;;;5071846;28;20044;-77
2023/12/12 12:24:45;;;;;;;18.50;12.43;;;;;;;;;;5091227;28;20421;-77
2023/12/12 12:27:11;;;;;;;19.60;12.10;;;;;;;;;;5091868;28;20054;-77
2023/12/12 12:29:38;;;;;;;19.27;12.50;;;;;;;;;;5091318;28;20082;-77
2023/12/12 12:32:10;;;;;;;21.58;12.93;;;;;;;;;;5093682;28;20047;-77
2023/12/12 12:34:36;;;;;;;21.63;12.98;;;;;;;;;;5092679;28;20055;-77
2023/12/12 12:37:02;;;;;;;21.92;13.18;;;;;;;;;;5094786;28;20036;-77
2023/12/12 12:39:29;;;;;;;20.40;12.90;;;;;;;;;;5092662;28;20392;-77
2023/12/12 12:41:55;;;;;;;20.50;12.50;;;;;;;;;;5091441;28;20032;-77
2023/12/12 12:44:21;;;;;;;23.73;13.57;;;;;;;;;;5091297;28;20498;-78
2023/12/12 12:46:49;;;;;;;21.67;12.95;;;;;;;;;;5070531;28;20041;-78
2023/12/12 12:49:15;;;;;;;22.70;13.80;;;;;;;;;;5091487;28;20089;-76
2023/12/12 12:51:42;;;;;;;25.83;12.63;;;;;;;;;;5091723;28;20043;-77
2023/12/12 12:54:08;;;;;;;19.90;13.05;;;;;;;;;;5091902;28;20052;-78
2023/12/12 12:56:35;;;;;;;23.88;13.15;;;;;;;;;;5075119;28;20528;-78
2023/12/12 12:59:01;;;;;;;23.08;13.60;;;;;;;;;;5091755;28;20066;-78
2023/12/12 13:01:27;;;;;;;18.38;12.40;;;;;;;;;;5074764;28;20119;-78
2023/12/12 13:03:53;;;;;;;18.33;13.10;;;;;;;;;;5074858;28;20060;-78
2023/12/12 13:06:19;;;;;;;18.92;12.77;;;;;;;;;;5091669;28;20131;-77
2023/12/12 13:08:46;;;;;;;18.63;12.55;;;;;;;;;;5091550;28;20040;-77
2023/12/12 13:11:12;;;;;;;16.98;12.48;;;;;;;;;;5091550;28;20093;-72
2023/12/12 13:13:38;;;;;;;17.55;11.50;;;;;;;;;;5111118;28;20120;-72
2023/12/12 13:16:05;;;;;;;19.48;12.27;;;;;;;;;;5111758;28;20036;-72
2023/12/12 13:18:32;;;;;;;19.00;13.02;;;;;;;;;;5091315;28;20048;-72
2023/12/12 13:20:58;;;;;;;18.15;12.68;;;;;;;;;;5091346;28;20521;-72
2023/12/12 13:23:24;;;;;;;18.92;12.70;;;;;;;;;;5074504;28;20044;-72
2023/12/12 13:25:50;;;;;;;17.15;12.25;;;;;;;;;;5074799;28;20543;-72
2023/12/12 13:28:16;;;;;;;20.13;13.13;;;;;;;;;;5091003;28;20047;-72
2023/12/12 13:30:42;;;;;;;20.83;13.27;;;;;;;;;;5091536;28;20078;-72
2023/12/12 13:33:11;;;;;;;17.42;12.35;;;;;;;;;;5091200;28;20481;-72
2023/12/12 13:35:37;;;;;;;19.48;12.75;;;;;;;;;;5091486;28;20056;-72
2023/12/12 13:38:03;;;;;;;23.00;13.43;;;;;;;;;;5091202;28;20043;-72
2023/12/12 13:40:29;;;;;;;21.45;12.57;;;;;;;;;;5091459;28;20040;-72
2023/12/12 13:42:55;;;;;;;21.02;12.85;;;;;;;;;;5091126;28;20072;-72
2023/12/12 13:45:21;;;;;;;21.63;12.27;;;;;;;;;;5091136;28;20135;-72
2023/12/12 13:47:47;;;;;;;21.17;12.75;;;;;;;;;;5093626;28;20484;-72
2023/12/12 13:50:13;;;;;;;19.10;12.13;;;;;;;;;;5094888;28;20093;-72
2023/12/12 13:52:40;;;;;;;22.20;13.20;;;;;;;;;;5094680;28;20109;-72
2023/12/12 13:55:06;;;;;;;24.85;13.05;;;;;;;;;;5078217;28;20124;-72
2023/12/12 13:57:32;;;;;;;25.55;13.48;;;;;;;;;;5096009;28;20048;-72
2023/12/12 13:59:58;;;;;;;21.45;13.57;;;;;;;;;;5094562;28;20094;-71
2023/12/12 14:02:24;;;;;;;23.52;14.20;;;;;;;;;;5084286;28;20096;-71
2023/12/12 14:04:50;;;;;;;26.33;13.93;;;;;;;;;;5115073;28;20087;-72
2023/12/12 14:07:18;;;;;;;21.75;13.85;;;;;;;;;;5115027;28;20082;-72
2023/12/12 14:09:44;;;;;;;18.75;12.38;;;;;;;;;;5115358;28;20443;-78
2023/12/12 14:12:11;;;;;;;24.25;13.38;;;;;;;;;;5114922;28;20042;-78
2023/12/12 14:14:37;;;;;;;20.98;12.35;;;;;;;;;;5115163;28;20035;-78
2023/12/12 14:17:03;;;;;;;20.65;12.98;;;;;;;;;;5107162;28;20158;-78
2023/12/12 14:19:29;;;;;;;18.63;12.63;;;;;;;;;;5094646;28;20040;-78
2023/12/12 14:21:55;;;;;;;20.48;12.93;;;;;;;;;;5094738;28;20046;-78
2023/12/12 14:24:21;;;;;;;22.35;13.32;;;;;;;;;;5094604;28;20398;-78
2023/12/12 14:26:47;;;;;;;24.48;14.25;;;;;;;;;;5094699;28;20050;-78
2023/12/12 14:29:13;;;;;;;24.67;14.60;;;;;;;;;;5094288;28;20044;-78
2023/12/12 14:31:40;;;;;;;24.30;14.63;;;;;;;;;;5077644;28;20046;-77